createdAt,value
2022-10-31T00:01:56.066Z,89.30
2022-10-31T00:05:41.080Z,90.00
2022-10-31T00:09:22.746Z,89.80
2022-10-31T00:13:04.505Z,89.90
2022-10-31T00:16:46.193Z,89.80
2022-10-31T00:20:27.857Z,89.10
2022-10-31T00:24:09.521Z,89.00
2022-10-31T00:27:51.202Z,88.90
2022-10-31T00:31:33.232Z,88.80
2022-10-31T00:35:15.106Z,88.80
2022-10-31T00:38:56.826Z,88.80
2022-10-31T00:42:42.470Z,88.80
2022-10-31T00:46:24.188Z,88.90
2022-10-31T00:50:06.606Z,89.00
2022-10-31T00:53:49.523Z,89.20
2022-10-31T00:57:31.190Z,89.40
2022-10-31T01:01:14.152Z,89.60
2022-10-31T01:04:56.076Z,89.80
2022-10-31T01:08:37.965Z,90.00
2022-10-31T01:12:19.794Z,90.00
2022-10-31T01:16:01.547Z,90.10
2022-10-31T01:19:43.244Z,90.10
2022-10-31T01:23:25.166Z,90.20
2022-10-31T01:27:06.877Z,90.30
2022-10-31T01:30:49.702Z,90.40
2022-10-31T01:34:31.461Z,90.60
2022-10-31T01:38:13.129Z,90.60
2022-10-31T01:41:55.149Z,90.70
2022-10-31T01:45:36.841Z,90.80
2022-10-31T01:49:29.571Z,90.90
2022-10-31T01:53:11.556Z,91.10
2022-10-31T01:56:54.196Z,91.00
2022-10-31T02:00:36.082Z,91.10
2022-10-31T02:04:18.267Z,91.10
2022-10-31T02:08:04.117Z,91.10
2022-10-31T02:11:46.094Z,91.30
2022-10-31T02:15:27.795Z,91.30
2022-10-31T02:19:09.912Z,91.30
2022-10-31T02:23:15.841Z,91.40
2022-10-31T02:27:00.597Z,91.50
2022-10-31T02:31:03.581Z,91.30
2022-10-31T02:34:53.644Z,91.30
2022-10-31T02:38:57.558Z,91.20
2022-10-31T02:42:44.955Z,91.20
2022-10-31T02:46:32.353Z,91.00
2022-10-31T02:50:18.708Z,91.00
2022-10-31T02:54:02.706Z,91.00
2022-10-31T02:57:44.407Z,91.00
2022-10-31T03:01:42.303Z,91.00
2022-10-31T03:05:33.317Z,91.20
2022-10-31T03:09:26.687Z,91.20
2022-10-31T03:13:29.554Z,91.20
2022-10-31T03:17:18.001Z,91.30
2022-10-31T03:21:09.424Z,91.10
2022-10-31T03:24:51.202Z,91.10
2022-10-31T03:28:37.499Z,91.00
2022-10-31T03:32:22.734Z,91.10
2022-10-31T03:36:05.392Z,91.10
2022-10-31T03:39:47.848Z,91.10
2022-10-31T03:43:31.564Z,91.20
2022-10-31T03:47:13.149Z,91.20
2022-10-31T03:51:07.608Z,91.00
2022-10-31T03:54:54.693Z,91.20
2022-10-31T03:58:46.460Z,91.10
2022-10-31T04:02:31.998Z,91.10
2022-10-31T04:06:15.434Z,91.10
2022-10-31T04:09:57.117Z,91.10
2022-10-31T04:13:39.057Z,91.00
2022-10-31T04:17:22.157Z,91.10
2022-10-31T04:21:08.338Z,91.00
2022-10-31T04:24:50.008Z,91.10
2022-10-31T04:28:32.387Z,91.00
2022-10-31T04:32:14.210Z,90.90
2022-10-31T04:35:55.907Z,91.20
2022-10-31T04:39:37.598Z,90.90
2022-10-31T04:47:02.182Z,90.90
2022-10-31T04:50:44.248Z,90.80
2022-10-31T04:54:25.984Z,90.80
2022-10-31T04:58:07.864Z,90.70
2022-10-31T05:01:50.885Z,90.60
2022-10-31T05:05:32.730Z,90.60
2022-10-31T05:09:14.408Z,90.60
2022-10-31T05:12:58.141Z,90.50
2022-10-31T05:16:40.073Z,90.60
2022-10-31T05:20:23.274Z,90.50
2022-10-31T05:24:06.443Z,90.60
2022-10-31T05:27:48.945Z,90.50
2022-10-31T05:31:30.713Z,90.90
2022-10-31T05:35:20.762Z,90.60
2022-10-31T05:39:03.016Z,90.60
2022-10-31T05:42:45.066Z,90.60
2022-10-31T05:46:26.844Z,90.50
2022-10-31T05:50:09.008Z,90.50
2022-10-31T05:53:50.744Z,90.50
2022-10-31T05:57:32.878Z,90.50
2022-10-31T06:01:14.787Z,90.50
2022-10-31T06:04:56.558Z,90.50
2022-10-31T06:08:38.277Z,90.50
2022-10-31T06:12:20.024Z,90.60
2022-10-31T06:16:01.687Z,90.50
2022-10-31T06:19:43.447Z,90.50
2022-10-31T06:23:25.420Z,90.50
2022-10-31T06:27:07.129Z,90.60
2022-10-31T06:30:49.031Z,90.60
2022-10-31T06:34:30.773Z,90.60
2022-10-31T06:38:12.442Z,90.50
2022-10-31T06:41:54.419Z,90.50
2022-10-31T06:45:36.099Z,90.50
2022-10-31T06:49:17.810Z,90.60
2022-10-31T06:53:00.780Z,90.60
2022-10-31T06:56:42.496Z,90.70
2022-10-31T07:00:24.569Z,91.00
2022-10-31T07:04:06.297Z,90.70
2022-10-31T07:07:48.054Z,90.80
2022-10-31T07:11:32.274Z,90.80
2022-10-31T07:15:14.008Z,90.90
2022-10-31T07:18:55.701Z,90.90
2022-10-31T07:22:38.180Z,90.90
2022-10-31T07:26:19.920Z,90.90
2022-10-31T07:30:01.599Z,90.90
2022-10-31T07:33:43.392Z,90.90
2022-10-31T07:37:28.505Z,90.90
2022-10-31T07:41:10.886Z,91.00
2022-10-31T07:44:55.262Z,90.90
2022-10-31T07:48:39.313Z,90.90
2022-10-31T07:52:23.119Z,90.90
2022-10-31T07:56:04.972Z,90.90
2022-10-31T07:59:46.665Z,90.90
2022-10-31T08:03:28.812Z,90.90
2022-10-31T08:07:10.505Z,91.00
2022-10-31T08:10:52.498Z,90.90
2022-10-31T08:14:34.243Z,90.90
2022-10-31T08:18:16.032Z,90.90
2022-10-31T08:21:59.166Z,91.10
2022-10-31T08:25:41.039Z,90.80
2022-10-31T08:29:22.762Z,90.80
2022-10-31T08:33:14.942Z,90.80
2022-10-31T08:36:56.701Z,90.70
2022-10-31T08:40:38.990Z,90.60
2022-10-31T08:44:20.918Z,90.60
2022-10-31T08:48:07.125Z,90.50
2022-10-31T08:51:49.473Z,90.50
2022-10-31T08:55:31.195Z,90.50
2022-10-31T08:59:12.914Z,90.40
2022-10-31T09:03:06.544Z,90.30
2022-10-31T09:07:19.703Z,90.20
2022-10-31T09:10:50.041Z,90.10
2022-10-31T09:14:31.733Z,90.10
2022-10-31T09:18:14.265Z,89.80
2022-10-31T09:21:56.131Z,89.20
2022-10-31T09:25:38.000Z,89.00
2022-10-31T09:29:19.716Z,88.60
2022-10-31T09:33:03.015Z,88.70
2022-10-31T09:36:45.186Z,88.50
2022-10-31T09:40:41.641Z,87.90
2022-10-31T09:44:45.045Z,87.20
2022-10-31T09:48:35.862Z,87.10
2022-10-31T09:52:42.002Z,86.70
2022-10-31T09:56:24.268Z,85.00
2022-10-31T10:00:06.705Z,85.50
2022-10-31T10:03:48.904Z,85.30
2022-10-31T10:07:33.688Z,84.80
2022-10-31T10:11:22.407Z,84.70
2022-10-31T10:15:42.474Z,84.70
2022-10-31T10:19:43.694Z,84.70
2022-10-31T10:23:33.909Z,84.80
2022-10-31T10:27:23.348Z,84.60
2022-10-31T10:31:30.051Z,83.80
2022-10-31T10:35:35.414Z,84.00
2022-10-31T10:39:18.870Z,83.20
2022-10-31T10:43:21.797Z,83.00
2022-10-31T10:47:21.716Z,82.60
2022-10-31T10:51:04.615Z,81.70
2022-10-31T10:55:23.968Z,81.30
2022-10-31T10:59:05.643Z,81.00
2022-10-31T11:02:49.089Z,80.30
2022-10-31T11:06:31.203Z,80.30
2022-10-31T11:10:16.965Z,79.80
2022-10-31T11:14:05.926Z,80.00
2022-10-31T11:17:49.937Z,78.50
2022-10-31T11:21:34.348Z,77.80
2022-10-31T11:25:26.714Z,78.20
2022-10-31T11:29:21.391Z,77.30
2022-10-31T11:33:03.540Z,77.10
2022-10-31T11:36:45.665Z,78.10
2022-10-31T11:40:27.656Z,78.50
2022-10-31T11:44:15.657Z,78.10
2022-10-31T11:47:59.850Z,76.00
2022-10-31T11:51:42.150Z,77.60
2022-10-31T11:55:35.512Z,77.40
2022-10-31T11:59:24.301Z,75.40
2022-10-31T12:03:13.479Z,76.40
2022-10-31T12:06:55.233Z,75.60
2022-10-31T12:11:07.013Z,76.60
2022-10-31T12:15:21.008Z,74.70
2022-10-31T12:19:24.461Z,75.10
2022-10-31T12:23:16.276Z,75.30
2022-10-31T12:27:17.202Z,72.90
2022-10-31T12:31:10.287Z,73.50
2022-10-31T12:35:01.816Z,73.30
2022-10-31T12:38:57.191Z,74.50
2022-10-31T12:42:46.780Z,72.70
2022-10-31T12:47:09.964Z,73.50
2022-10-31T12:51:17.105Z,73.20
2022-10-31T12:55:10.768Z,73.60
2022-10-31T12:59:08.127Z,72.50
2022-10-31T13:02:54.081Z,76.90
2022-10-31T13:06:44.741Z,72.90
2022-10-31T13:10:58.320Z,73.20
2022-10-31T13:14:40.921Z,74.10
2022-10-31T13:18:53.625Z,73.60
2022-10-31T13:23:36.675Z,72.90
2022-10-31T13:27:24.244Z,73.10
2022-10-31T13:31:06.111Z,72.80
2022-10-31T13:34:51.794Z,73.30
2022-10-31T13:38:38.629Z,71.70
2022-10-31T13:42:56.234Z,70.90
2022-10-31T13:46:39.797Z,71.30
2022-10-31T13:50:24.319Z,71.70
2022-10-31T13:54:33.743Z,71.70
2022-10-31T13:58:26.806Z,72.50
2022-10-31T14:02:18.625Z,72.60
2022-10-31T14:06:00.719Z,72.50
2022-10-31T14:09:55.735Z,73.50
2022-10-31T14:13:44.513Z,73.50
2022-10-31T14:17:28.038Z,74.80
2022-10-31T14:21:24.940Z,75.70
2022-10-31T14:25:35.436Z,76.50
2022-10-31T14:29:17.949Z,75.60
2022-10-31T14:33:04.207Z,75.90
2022-10-31T14:37:04.677Z,75.30
2022-10-31T14:40:53.579Z,75.90
2022-10-31T14:45:13.045Z,76.00
2022-10-31T14:49:34.811Z,77.80
2022-10-31T14:53:19.928Z,77.70
2022-10-31T14:57:07.567Z,77.80
2022-10-31T15:00:51.896Z,78.30
2022-10-31T15:04:34.610Z,78.60
2022-10-31T15:08:41.213Z,79.30
2022-10-31T15:12:25.439Z,79.80
2022-10-31T15:16:08.827Z,80.20
2022-10-31T15:19:50.491Z,80.40
2022-10-31T15:23:33.180Z,80.80
2022-10-31T15:27:18.168Z,80.90
2022-10-31T15:31:37.872Z,81.20
2022-10-31T15:35:22.649Z,81.00
2022-10-31T15:39:04.347Z,81.60
2022-10-31T15:42:54.168Z,81.90
2022-10-31T15:46:35.927Z,82.00
2022-10-31T15:50:24.134Z,83.00
2022-10-31T15:54:06.045Z,83.00
2022-10-31T15:57:50.021Z,83.40
2022-10-31T16:01:34.829Z,83.50
2022-10-31T16:05:18.849Z,83.60
2022-10-31T16:09:00.833Z,83.40
2022-10-31T16:12:46.659Z,83.50
2022-10-31T16:16:35.062Z,83.90
2022-10-31T16:20:23.609Z,84.00
2022-10-31T16:24:44.325Z,84.40
2022-10-31T16:28:31.021Z,85.20
2022-10-31T16:32:57.473Z,84.50
2022-10-31T16:36:40.650Z,84.70
2022-10-31T16:40:22.329Z,83.60
2022-10-31T16:44:07.415Z,84.60
2022-10-31T16:47:52.293Z,85.10
2022-10-31T16:51:34.143Z,84.90
2022-10-31T16:55:16.144Z,85.30
2022-10-31T16:58:58.181Z,85.30
2022-10-31T17:02:41.245Z,85.50
2022-10-31T17:06:22.933Z,85.80
2022-10-31T17:10:04.989Z,86.10
2022-10-31T17:13:46.921Z,86.30
2022-10-31T17:17:28.588Z,86.50
2022-10-31T17:21:20.141Z,86.80
2022-10-31T17:25:02.700Z,87.30
2022-10-31T17:28:44.372Z,87.20
2022-10-31T17:32:26.351Z,87.60
2022-10-31T17:36:08.181Z,87.30
2022-10-31T17:39:49.932Z,87.60
2022-10-31T17:43:31.762Z,87.70
2022-10-31T17:47:13.447Z,87.70
2022-10-31T17:51:00.345Z,87.90
2022-10-31T17:54:42.029Z,88.40
2022-10-31T17:58:23.693Z,88.20
2022-10-31T18:02:09.196Z,88.40
2022-10-31T18:05:58.621Z,88.80
2022-10-31T18:09:40.319Z,89.40
2022-10-31T18:13:23.220Z,88.90
2022-10-31T18:17:04.889Z,89.40
2022-10-31T18:20:47.891Z,89.40
2022-10-31T18:24:30.104Z,89.80
2022-10-31T18:28:11.812Z,89.70
2022-10-31T18:32:12.638Z,89.70
2022-10-31T18:35:54.331Z,90.00
2022-10-31T18:39:35.996Z,89.50
2022-10-31T18:43:19.898Z,90.00
2022-10-31T18:47:01.558Z,90.10
2022-10-31T18:50:43.627Z,90.10
2022-10-31T18:54:25.313Z,90.20
2022-10-31T18:58:06.996Z,90.30
2022-10-31T19:01:50.032Z,90.30
2022-10-31T19:05:32.126Z,90.40
2022-10-31T19:09:13.821Z,90.40
2022-10-31T19:12:55.846Z,90.40
2022-10-31T19:16:37.506Z,90.40
2022-10-31T19:20:19.212Z,90.40
2022-10-31T19:24:01.115Z,90.40
2022-10-31T19:27:42.796Z,90.40
2022-10-31T19:31:24.577Z,90.40
2022-10-31T19:35:11.007Z,90.50
2022-10-31T19:38:52.987Z,90.60
2022-10-31T19:42:35.198Z,90.70
2022-10-31T19:46:27.791Z,90.60
2022-10-31T19:50:19.360Z,90.70
2022-10-31T19:54:01.157Z,90.60
2022-10-31T19:58:00.649Z,90.50
2022-10-31T20:01:43.528Z,90.70
2022-10-31T20:05:25.421Z,90.60
2022-10-31T20:09:09.603Z,90.50
2022-10-31T20:12:51.329Z,90.60
2022-10-31T20:16:33.248Z,90.70
2022-10-31T20:20:14.990Z,90.70
2022-10-31T20:24:00.968Z,90.70
2022-10-31T20:27:42.633Z,90.70
2022-10-31T20:31:26.769Z,90.60
2022-10-31T20:35:08.837Z,90.60
2022-10-31T20:38:51.174Z,90.60
2022-10-31T20:42:34.029Z,90.70
2022-10-31T20:46:21.665Z,90.80
2022-10-31T20:50:05.286Z,90.90
2022-10-31T20:53:48.578Z,90.80
2022-10-31T20:57:30.286Z,90.50
2022-10-31T21:01:17.863Z,90.30
2022-10-31T21:04:59.738Z,90.00
2022-10-31T21:08:43.671Z,90.10
2022-10-31T21:12:25.579Z,89.80
2022-10-31T21:16:11.844Z,89.40
2022-10-31T21:19:53.542Z,89.70
2022-10-31T21:23:36.676Z,89.40
2022-10-31T21:27:18.340Z,89.50
2022-10-31T21:31:05.862Z,89.60
2022-10-31T21:34:50.068Z,89.90
2022-10-31T21:38:32.047Z,90.00
2022-10-31T21:42:17.495Z,90.20
2022-10-31T21:46:03.824Z,90.20
2022-10-31T21:49:45.608Z,90.40
2022-10-31T21:53:46.338Z,90.20
2022-10-31T21:57:28.022Z,90.40
2022-10-31T22:01:10.088Z,90.20
2022-10-31T22:04:51.926Z,90.20
2022-10-31T22:08:34.828Z,90.00
2022-10-31T22:12:17.820Z,90.10
2022-10-31T22:16:03.477Z,90.30
2022-10-31T22:19:45.156Z,90.10
2022-10-31T22:23:26.836Z,90.10
2022-10-31T22:27:08.537Z,90.00
2022-10-31T22:30:50.445Z,90.20
2022-10-31T22:34:32.133Z,89.70
2022-10-31T22:38:13.826Z,89.50
2022-10-31T22:41:56.810Z,89.10
2022-10-31T22:45:38.469Z,89.00
2022-10-31T22:49:20.143Z,89.70
2022-10-31T22:53:04.987Z,89.20
2022-10-31T22:56:46.967Z,89.40
2022-10-31T23:00:28.642Z,89.60
2022-10-31T23:07:53.025Z,89.20
2022-10-31T23:11:37.332Z,89.90
2022-10-31T23:15:19.008Z,89.50
2022-10-31T23:19:00.824Z,89.70
2022-10-31T23:22:42.724Z,89.70
2022-10-31T23:26:43.344Z,89.90
2022-10-31T23:30:25.033Z,89.70
2022-10-31T23:34:06.894Z,90.20
2022-10-31T23:37:48.576Z,89.70
2022-10-31T23:41:31.396Z,90.00
2022-10-31T23:45:13.079Z,89.70
2022-10-31T23:48:54.765Z,89.70
2022-10-31T23:52:38.677Z,90.00
2022-10-31T23:56:20.346Z,90.00
